sensor_id;sensor_type;location;lat;lon;timestamp;pressure;altitude;pressure_sealevel;temperature;humidity
48644;BME280;34928;37.302;-121.984;2023-02-19T00:05:22;100980.0;;;27.19;18.25
48644;BME280;34928;37.302;-121.984;2023-02-19T00:15:30;100966.0;;;27.20;18.37
48644;BME280;34928;37.302;-121.984;2023-02-19T00:25:37;100961.0;;;27.20;17.90
48644;BME280;34928;37.302;-121.984;2023-02-19T00:35:42;100957.0;;;27.24;18.61
48644;BME280;34928;37.302;-121.984;2023-02-19T00:45:47;100954.0;;;27.22;18.60
48644;BME280;34928;37.302;-121.984;2023-02-19T00:55:52;100957.0;;;27.13;18.65
48644;BME280;34928;37.302;-121.984;2023-02-19T01:05:57;100970.0;;;26.89;18.60
48644;BME280;34928;37.302;-121.984;2023-02-19T01:16:04;100992.0;;;27.14;18.59
48644;BME280;34928;37.302;-121.984;2023-02-19T01:26:10;101014.0;;;27.15;18.39
48644;BME280;34928;37.302;-121.984;2023-02-19T01:36:17;101027.0;;;27.03;18.26
48644;BME280;34928;37.302;-121.984;2023-02-19T01:46:25;101025.0;;;27.09;18.15
48644;BME280;34928;37.302;-121.984;2023-02-19T01:56:35;101041.0;;;26.81;18.10
48644;BME280;34928;37.302;-121.984;2023-02-19T02:06:47;101058.0;;;27.03;18.05
48644;BME280;34928;37.302;-121.984;2023-02-19T02:16:59;101065.0;;;26.96;18.02
48644;BME280;34928;37.302;-121.984;2023-02-19T02:27:23;101064.0;;;26.72;17.94
48644;BME280;34928;37.302;-121.984;2023-02-19T02:37:34;101041.0;;;27.13;17.84
48644;BME280;34928;37.302;-121.984;2023-02-19T02:47:47;101037.0;;;27.15;17.77
48644;BME280;34928;37.302;-121.984;2023-02-19T02:57:52;101041.0;;;26.84;17.66
48644;BME280;34928;37.302;-121.984;2023-02-19T03:08:02;101050.0;;;26.78;17.61
48644;BME280;34928;37.302;-121.984;2023-02-19T03:18:08;101066.0;;;26.78;17.57
48644;BME280;34928;37.302;-121.984;2023-02-19T03:28:21;101056.0;;;26.70;17.55
48644;BME280;34928;37.302;-121.984;2023-02-19T03:38:31;101050.0;;;26.96;17.39
48644;BME280;34928;37.302;-121.984;2023-02-19T03:48:49;101077.0;;;26.58;17.39
48644;BME280;34928;37.302;-121.984;2023-02-19T03:59:02;101100.0;;;26.56;17.30
48644;BME280;34928;37.302;-121.984;2023-02-19T04:09:14;101114.0;;;26.73;17.24
48644;BME280;34928;37.302;-121.984;2023-02-19T04:19:25;101125.0;;;26.49;17.31
48644;BME280;34928;37.302;-121.984;2023-02-19T04:29:32;101125.0;;;26.80;17.46
48644;BME280;34928;37.302;-121.984;2023-02-19T04:39:38;101144.0;;;26.86;17.43
48644;BME280;34928;37.302;-121.984;2023-02-19T04:49:43;101149.0;;;26.97;17.41
48644;BME280;34928;37.302;-121.984;2023-02-19T04:59:49;101162.0;;;26.91;17.29
48644;BME280;34928;37.302;-121.984;2023-02-19T05:10:02;101171.0;;;27.11;17.50
48644;BME280;34928;37.302;-121.984;2023-02-19T05:20:09;101175.0;;;26.89;17.11
48644;BME280;34928;37.302;-121.984;2023-02-19T05:30:12;101178.0;;;27.15;17.30
48644;BME280;34928;37.302;-121.984;2023-02-19T05:40:18;101187.0;;;26.74;16.87
48644;BME280;34928;37.302;-121.984;2023-02-19T05:50:23;101192.0;;;27.24;16.58
48644;BME280;34928;37.302;-121.984;2023-02-19T06:00:28;101205.0;;;26.74;16.67
48644;BME280;34928;37.302;-121.984;2023-02-19T06:10:32;101209.0;;;26.94;16.97
48644;BME280;34928;37.302;-121.984;2023-02-19T06:20:37;101200.0;;;26.75;16.67
48644;BME280;34928;37.302;-121.984;2023-02-19T06:30:43;101205.0;;;27.20;16.96
48644;BME280;34928;37.302;-121.984;2023-02-19T06:40:47;101202.0;;;27.08;16.90
48644;BME280;34928;37.302;-121.984;2023-02-19T06:50:53;101211.0;;;26.98;16.89
48644;BME280;34928;37.302;-121.984;2023-02-19T07:00:58;101214.0;;;26.89;16.81
48644;BME280;34928;37.302;-121.984;2023-02-19T07:11:03;101227.0;;;26.94;16.96
48644;BME280;34928;37.302;-121.984;2023-02-19T07:21:10;101226.0;;;26.55;16.91
48644;BME280;34928;37.302;-121.984;2023-02-19T07:31:18;101220.0;;;26.44;16.88
48644;BME280;34928;37.302;-121.984;2023-02-19T07:41:53;101228.0;;;26.55;16.88
48644;BME280;34928;37.302;-121.984;2023-02-19T07:52:13;101222.0;;;26.44;16.82
48644;BME280;34928;37.302;-121.984;2023-02-19T08:02:22;101226.0;;;26.35;16.80
48644;BME280;34928;37.302;-121.984;2023-02-19T08:12:31;101220.0;;;25.83;16.82
48644;BME280;34928;37.302;-121.984;2023-02-19T08:22:58;101209.0;;;26.07;16.78
48644;BME280;34928;37.302;-121.984;2023-02-19T08:33:13;101211.0;;;26.16;16.78
48644;BME280;34928;37.302;-121.984;2023-02-19T08:43:17;101191.0;;;25.26;16.37
48644;BME280;34928;37.302;-121.984;2023-02-19T08:53:22;101207.0;;;26.02;16.61
48644;BME280;34928;37.302;-121.984;2023-02-19T09:03:27;101213.0;;;26.68;16.76
48644;BME280;34928;37.302;-121.984;2023-02-19T09:13:33;101218.0;;;26.45;16.76
48644;BME280;34928;37.302;-121.984;2023-02-19T09:23:37;101229.0;;;26.38;16.88
48644;BME280;34928;37.302;-121.984;2023-02-19T09:33:43;101225.0;;;25.98;16.96
48644;BME280;34928;37.302;-121.984;2023-02-19T09:43:48;101226.0;;;25.97;16.98
48644;BME280;34928;37.302;-121.984;2023-02-19T09:53:53;101222.0;;;25.83;16.96
48644;BME280;34928;37.302;-121.984;2023-02-19T10:03:57;101215.0;;;25.66;17.10
48644;BME280;34928;37.302;-121.984;2023-02-19T10:14:05;101201.0;;;25.29;17.19
48644;BME280;34928;37.302;-121.984;2023-02-19T10:24:19;101187.0;;;25.29;17.29
48644;BME280;34928;37.302;-121.984;2023-02-19T10:34:22;101175.0;;;25.33;17.17
48644;BME280;34928;37.302;-121.984;2023-02-19T10:44:29;101178.0;;;25.26;16.79
48644;BME280;34928;37.302;-121.984;2023-02-19T10:54:37;101183.0;;;24.98;16.80
48644;BME280;34928;37.302;-121.984;2023-02-19T11:04:46;101177.0;;;24.99;16.78
48644;BME280;34928;37.302;-121.984;2023-02-19T11:15:18;101160.0;;;24.72;16.84
48644;BME280;34928;37.302;-121.984;2023-02-19T11:25:23;101174.0;;;24.58;16.95
48644;BME280;34928;37.302;-121.984;2023-02-19T11:35:28;101183.0;;;24.82;16.93
48644;BME280;34928;37.302;-121.984;2023-02-19T11:45:38;101171.0;;;24.44;16.97
48644;BME280;34928;37.302;-121.984;2023-02-19T11:55:56;101181.0;;;24.22;17.02
48644;BME280;34928;37.302;-121.984;2023-02-19T12:06:19;101182.0;;;24.36;17.02
48644;BME280;34928;37.302;-121.984;2023-02-19T12:16:30;101192.0;;;23.98;17.04
48644;BME280;34928;37.302;-121.984;2023-02-19T12:26:53;101184.0;;;24.04;17.08
48644;BME280;34928;37.302;-121.984;2023-02-19T12:37:13;101182.0;;;23.81;17.12
48644;BME280;34928;37.302;-121.984;2023-02-19T12:47:35;101178.0;;;23.45;17.08
48644;BME280;34928;37.302;-121.984;2023-02-19T12:57:42;101179.0;;;23.79;17.12
48644;BME280;34928;37.302;-121.984;2023-02-19T13:07:54;101183.0;;;23.86;17.98
48644;BME280;34928;37.302;-121.984;2023-02-19T13:18:06;101176.0;;;23.68;17.06
48644;BME280;34928;37.302;-121.984;2023-02-19T13:28:27;101162.0;;;23.55;17.18
48644;BME280;34928;37.302;-121.984;2023-02-19T13:38:40;101176.0;;;23.06;16.68
48644;BME280;34928;37.302;-121.984;2023-02-19T13:48:47;101185.0;;;23.11;16.87
48644;BME280;34928;37.302;-121.984;2023-02-19T13:59:32;101210.0;;;23.95;17.11
48644;BME280;34928;37.302;-121.984;2023-02-19T14:09:45;101217.0;;;24.44;17.15
48644;BME280;34928;37.302;-121.984;2023-02-19T14:19:55;101231.0;;;24.61;17.43
48644;BME280;34928;37.302;-121.984;2023-02-19T14:30:03;101228.0;;;24.92;17.45
48644;BME280;34928;37.302;-121.984;2023-02-19T14:40:12;101242.0;;;25.00;17.29
48644;BME280;34928;37.302;-121.984;2023-02-19T14:50:27;101244.0;;;25.49;17.34
48644;BME280;34928;37.302;-121.984;2023-02-19T15:00:35;101251.0;;;25.29;17.37
48644;BME280;34928;37.302;-121.984;2023-02-19T15:10:43;101250.0;;;25.53;17.34
48644;BME280;34928;37.302;-121.984;2023-02-19T15:20:48;101251.0;;;26.05;17.28
48644;BME280;34928;37.302;-121.984;2023-02-19T15:31:05;101270.0;;;25.95;17.13
48644;BME280;34928;37.302;-121.984;2023-02-19T15:41:19;101265.0;;;25.86;16.55
48644;BME280;34928;37.302;-121.984;2023-02-19T15:51:28;101267.0;;;25.92;16.97
48644;BME280;34928;37.302;-121.984;2023-02-19T16:01:34;101268.0;;;26.56;16.96
48644;BME280;34928;37.302;-121.984;2023-02-19T16:11:44;101282.0;;;25.87;17.07
48644;BME280;34928;37.302;-121.984;2023-02-19T16:21:52;101300.0;;;25.90;17.09
48644;BME280;34928;37.302;-121.984;2023-02-19T16:32:00;101320.0;;;25.68;16.62
48644;BME280;34928;37.302;-121.984;2023-02-19T16:42:15;101330.0;;;25.35;15.29
48644;BME280;34928;37.302;-121.984;2023-02-19T16:52:17;101324.0;;;25.17;16.25
48644;BME280;34928;37.302;-121.984;2023-02-19T17:02:23;101320.0;;;25.26;16.55
48644;BME280;34928;37.302;-121.984;2023-02-19T17:12:28;101305.0;;;25.35;16.56
48644;BME280;34928;37.302;-121.984;2023-02-19T17:22:33;101330.0;;;25.57;16.62
48644;BME280;34928;37.302;-121.984;2023-02-19T17:32:37;101326.0;;;25.51;16.57
48644;BME280;34928;37.302;-121.984;2023-02-19T17:42:42;101325.0;;;25.48;16.53
48644;BME280;34928;37.302;-121.984;2023-02-19T17:52:47;101341.0;;;25.29;16.69
48644;BME280;34928;37.302;-121.984;2023-02-19T18:02:53;101343.0;;;25.22;16.75
48644;BME280;34928;37.302;-121.984;2023-02-19T18:12:57;101338.0;;;24.94;16.34
48644;BME280;34928;37.302;-121.984;2023-02-19T18:23:03;101330.0;;;24.18;16.71
48644;BME280;34928;37.302;-121.984;2023-02-19T18:33:08;101327.0;;;24.03;16.62
48644;BME280;34928;37.302;-121.984;2023-02-19T18:43:14;101335.0;;;24.06;16.37
48644;BME280;34928;37.302;-121.984;2023-02-19T18:53:17;101309.0;;;24.30;15.92
48644;BME280;34928;37.302;-121.984;2023-02-19T19:03:23;101293.0;;;24.56;15.15
48644;BME280;34928;37.302;-121.984;2023-02-19T19:13:28;101283.0;;;24.79;15.57
48644;BME280;34928;37.302;-121.984;2023-02-19T19:23:32;101275.0;;;25.15;16.08
48644;BME280;34928;37.302;-121.984;2023-02-19T19:33:37;101280.0;;;25.58;16.15
48644;BME280;34928;37.302;-121.984;2023-02-19T19:43:42;101268.0;;;25.42;16.47
48644;BME280;34928;37.302;-121.984;2023-02-19T19:53:48;101245.0;;;25.61;16.60
48644;BME280;34928;37.302;-121.984;2023-02-19T20:03:52;101233.0;;;25.72;16.61
48644;BME280;34928;37.302;-121.984;2023-02-19T20:13:57;101209.0;;;25.77;16.62
48644;BME280;34928;37.302;-121.984;2023-02-19T20:24:03;101199.0;;;25.87;16.62
48644;BME280;34928;37.302;-121.984;2023-02-19T20:34:07;101181.0;;;26.01;16.57
48644;BME280;34928;37.302;-121.984;2023-02-19T20:44:13;101171.0;;;26.01;16.62
48644;BME280;34928;37.302;-121.984;2023-02-19T20:54:18;101166.0;;;26.05;16.67
48644;BME280;34928;37.302;-121.984;2023-02-19T21:04:22;101151.0;;;26.09;16.67
48644;BME280;34928;37.302;-121.984;2023-02-19T21:14:28;101134.0;;;26.18;16.74
48644;BME280;34928;37.302;-121.984;2023-02-19T21:24:32;101126.0;;;26.38;16.71
48644;BME280;34928;37.302;-121.984;2023-02-19T21:34:37;101101.0;;;26.42;16.82
48644;BME280;34928;37.302;-121.984;2023-02-19T21:44:42;101109.0;;;26.22;16.83
48644;BME280;34928;37.302;-121.984;2023-02-19T21:54:47;101104.0;;;26.18;16.99
48644;BME280;34928;37.302;-121.984;2023-02-19T22:04:52;101097.0;;;26.25;16.94
48644;BME280;34928;37.302;-121.984;2023-02-19T22:14:57;101085.0;;;26.24;17.17
48644;BME280;34928;37.302;-121.984;2023-02-19T22:25:03;101079.0;;;26.36;16.91
48644;BME280;34928;37.302;-121.984;2023-02-19T22:35:07;101073.0;;;26.34;17.29
48644;BME280;34928;37.302;-121.984;2023-02-19T22:45:13;101068.0;;;26.62;17.32
48644;BME280;34928;37.302;-121.984;2023-02-19T22:55:17;101074.0;;;26.73;17.33
48644;BME280;34928;37.302;-121.984;2023-02-19T23:05:22;101079.0;;;26.81;17.30
48644;BME280;34928;37.302;-121.984;2023-02-19T23:15:27;101072.0;;;26.82;17.37
48644;BME280;34928;37.302;-121.984;2023-02-19T23:25:33;101069.0;;;26.90;17.29
48644;BME280;34928;37.302;-121.984;2023-02-19T23:35:37;101065.0;;;26.84;17.39
48644;BME280;34928;37.302;-121.984;2023-02-19T23:45:42;101048.0;;;26.56;15.63
48644;BME280;34928;37.302;-121.984;2023-02-19T23:55:47;101043.0;;;26.43;17.41
